sensor_id;sensor_type;location;lat;lon;timestamp;pressure;altitude;pressure_sealevel;temperature;humidity
48778;BME280;34578;0.000;0.000;2023-01-28T00:03:51;97003.19;;;16.86;49.08
48778;BME280;34578;0.000;0.000;2023-01-28T00:08:52;96998.09;;;16.83;49.52
48778;BME280;34578;0.000;0.000;2023-01-28T00:13:54;96991.44;;;16.89;48.68
48778;BME280;34578;0.000;0.000;2023-01-28T00:18:55;96999.88;;;16.90;48.53
48778;BME280;34578;0.000;0.000;2023-01-28T00:23:55;96994.81;;;16.90;48.85
48778;BME280;34578;0.000;0.000;2023-01-28T00:28:56;96991.41;;;16.88;48.85
48778;BME280;34578;0.000;0.000;2023-01-28T00:33:56;96987.19;;;16.88;49.12
48778;BME280;34578;0.000;0.000;2023-01-28T00:38:58;96990.53;;;16.83;48.84
48778;BME280;34578;0.000;0.000;2023-01-28T00:43:58;96985.47;;;16.83;49.43
48778;BME280;34578;0.000;0.000;2023-01-28T00:48:59;96981.28;;;16.86;48.83
48778;BME280;34578;0.000;0.000;2023-01-28T00:53:59;96976.19;;;16.82;49.38
48778;BME280;34578;0.000;0.000;2023-01-28T00:59:00;96981.25;;;16.85;49.33
48778;BME280;34578;0.000;0.000;2023-01-28T01:04:00;96978.75;;;16.86;49.33
48778;BME280;34578;0.000;0.000;2023-01-28T01:09:07;96986.31;;;16.85;49.59
48778;BME280;34578;0.000;0.000;2023-01-28T01:14:09;96984.56;;;16.79;49.50
48778;BME280;34578;0.000;0.000;2023-01-28T01:19:09;96979.63;;;16.90;48.79
48778;BME280;34578;0.000;0.000;2023-01-28T01:24:09;96972.06;;;16.90;48.75
48778;BME280;34578;0.000;0.000;2023-01-28T01:29:10;96972.03;;;16.88;49.18
48778;BME280;34578;0.000;0.000;2023-01-28T01:34:10;96965.13;;;16.75;48.80
48778;BME280;34578;0.000;0.000;2023-01-28T01:39:11;96977.88;;;16.83;49.09
48778;BME280;34578;0.000;0.000;2023-01-28T01:49:49;96983.81;;;16.88;49.40
48778;BME280;34578;0.000;0.000;2023-01-28T01:54:52;96986.31;;;16.85;49.12
48778;BME280;34578;0.000;0.000;2023-01-28T01:59:54;96988.84;;;16.85;49.22
48778;BME280;34578;0.000;0.000;2023-01-28T02:04:56;96986.31;;;16.82;49.42
48778;BME280;34578;0.000;0.000;2023-01-28T02:09:56;96992.25;;;16.88;49.41
48778;BME280;34578;0.000;0.000;2023-01-28T02:15:02;96992.22;;;16.84;49.44
48778;BME280;34578;0.000;0.000;2023-01-28T02:20:08;96988.91;;;16.91;48.66
48778;BME280;34578;0.000;0.000;2023-01-28T02:30:21;96989.75;;;16.90;48.77
48778;BME280;34578;0.000;0.000;2023-01-28T02:35:36;96993.94;;;16.89;48.92
48778;BME280;34578;0.000;0.000;2023-01-28T02:40:38;96994.75;;;16.87;49.49
48778;BME280;34578;0.000;0.000;2023-01-28T02:46:11;96988.00;;;16.86;49.18
48778;BME280;34578;0.000;0.000;2023-01-28T03:02:07;97000.63;;;16.83;48.71
48778;BME280;34578;0.000;0.000;2023-01-28T03:07:11;96997.28;;;16.87;48.79
48778;BME280;34578;0.000;0.000;2023-01-28T03:12:17;96993.94;;;16.86;49.51
48778;BME280;34578;0.000;0.000;2023-01-28T03:17:45;96992.25;;;16.85;49.57
48778;BME280;34578;0.000;0.000;2023-01-28T03:23:12;96997.34;;;16.91;48.46
48778;BME280;34578;0.000;0.000;2023-01-28T03:28:34;97004.09;;;16.91;48.50
48778;BME280;34578;0.000;0.000;2023-01-28T03:33:56;97000.72;;;16.92;48.54
48778;BME280;34578;0.000;0.000;2023-01-28T03:39:27;97015.03;;;16.91;48.42
48778;BME280;34578;0.000;0.000;2023-01-28T03:44:29;97010.00;;;16.90;48.54
48778;BME280;34578;0.000;0.000;2023-01-28T03:49:51;97004.03;;;16.86;48.67
48778;BME280;34578;0.000;0.000;2023-01-28T03:54:54;97011.63;;;16.88;48.48
48778;BME280;34578;0.000;0.000;2023-01-28T03:59:58;97012.47;;;16.85;48.74
48778;BME280;34578;0.000;0.000;2023-01-28T04:04:58;97009.09;;;16.88;48.26
48778;BME280;34578;0.000;0.000;2023-01-28T04:09:58;97003.22;;;16.87;48.73
48778;BME280;34578;0.000;0.000;2023-01-28T04:15:08;97003.25;;;16.92;49.02
48778;BME280;34578;0.000;0.000;2023-01-28T04:20:16;97009.09;;;16.88;49.53
48778;BME280;34578;0.000;0.000;2023-01-28T04:25:17;97013.34;;;16.90;48.89
48778;BME280;34578;0.000;0.000;2023-01-28T04:30:18;97017.56;;;16.90;48.36
48778;BME280;34578;0.000;0.000;2023-01-28T04:35:28;97015.88;;;16.89;48.85
48778;BME280;34578;0.000;0.000;2023-01-28T04:40:38;97020.03;;;16.87;48.58
48778;BME280;34578;0.000;0.000;2023-01-28T04:45:45;97022.56;;;16.87;48.68
48778;BME280;34578;0.000;0.000;2023-01-28T04:51:07;97019.22;;;16.88;48.32
48778;BME280;34578;0.000;0.000;2023-01-28T04:56:11;97033.59;;;16.92;48.25
48778;BME280;34578;0.000;0.000;2023-01-28T05:01:12;97038.63;;;16.89;48.24
48778;BME280;34578;0.000;0.000;2023-01-28T05:06:13;97043.69;;;16.89;48.28
48778;BME280;34578;0.000;0.000;2023-01-28T05:11:16;97043.69;;;16.89;48.52
48778;BME280;34578;0.000;0.000;2023-01-28T05:16:18;97050.44;;;16.90;48.43
48778;BME280;34578;0.000;0.000;2023-01-28T05:21:19;97047.94;;;16.93;48.91
48778;BME280;34578;0.000;0.000;2023-01-28T05:26:25;97047.91;;;16.88;49.10
48778;BME280;34578;0.000;0.000;2023-01-28T05:31:25;97060.59;;;16.93;48.42
48778;BME280;34578;0.000;0.000;2023-01-28T05:36:26;97058.09;;;16.96;48.14
48778;BME280;34578;0.000;0.000;2023-01-28T05:41:28;97051.28;;;16.89;48.62
48778;BME280;34578;0.000;0.000;2023-01-28T05:46:33;97055.50;;;16.91;48.69
48778;BME280;34578;0.000;0.000;2023-01-28T05:51:44;97060.50;;;16.87;48.65
48778;BME280;34578;0.000;0.000;2023-01-28T05:56:48;97055.50;;;16.90;47.81
48778;BME280;34578;0.000;0.000;2023-01-28T06:01:50;97059.72;;;16.91;48.00
48778;BME280;34578;0.000;0.000;2023-01-28T06:06:50;97073.22;;;16.90;45.27
48778;BME280;34578;0.000;0.000;2023-01-28T06:11:51;97079.09;;;16.89;48.73
48778;BME280;34578;0.000;0.000;2023-01-28T06:16:52;97077.44;;;16.91;49.13
48778;BME280;34578;0.000;0.000;2023-01-28T06:22:00;97081.63;;;16.89;49.15
48778;BME280;34578;0.000;0.000;2023-01-28T06:27:01;97092.72;;;17.00;48.60
48778;BME280;34578;0.000;0.000;2023-01-28T06:32:01;97095.22;;;16.98;49.66
48778;BME280;34578;0.000;0.000;2023-01-28T06:37:02;97096.16;;;17.09;48.19
48778;BME280;34578;0.000;0.000;2023-01-28T06:42:03;97109.59;;;17.04;48.42
48778;BME280;34578;0.000;0.000;2023-01-28T06:47:04;97113.78;;;17.00;47.79
48778;BME280;34578;0.000;0.000;2023-01-28T06:52:05;97118.06;;;17.04;46.72
48778;BME280;34578;0.000;0.000;2023-01-28T06:57:05;97125.69;;;17.06;47.48
48778;BME280;34578;0.000;0.000;2023-01-28T07:02:06;97126.63;;;17.17;45.61
48778;BME280;34578;0.000;0.000;2023-01-28T07:07:06;97124.41;;;17.41;45.91
48778;BME280;34578;0.000;0.000;2023-01-28T07:12:06;97138.88;;;17.54;46.67
48778;BME280;34578;0.000;0.000;2023-01-28T07:17:07;97130.44;;;17.52;45.55
48778;BME280;34578;0.000;0.000;2023-01-28T07:22:07;97138.91;;;17.55;44.96
48778;BME280;34578;0.000;0.000;2023-01-28T07:27:08;97153.25;;;17.56;45.24
48778;BME280;34578;0.000;0.000;2023-01-28T07:32:08;97149.16;;;17.66;44.66
48778;BME280;34578;0.000;0.000;2023-01-28T07:37:08;97153.56;;;17.88;44.78
48778;BME280;34578;0.000;0.000;2023-01-28T07:42:09;97152.00;;;18.00;45.81
48778;BME280;34578;0.000;0.000;2023-01-28T07:47:11;97150.97;;;18.89;43.09
48778;BME280;34578;0.000;0.000;2023-01-28T07:52:12;97141.19;;;18.21;44.55
48778;BME280;34578;0.000;0.000;2023-01-28T07:57:12;97154.47;;;17.93;46.01
48778;BME280;34578;0.000;0.000;2023-01-28T08:02:13;97156.16;;;17.91;47.03
48778;BME280;34578;0.000;0.000;2023-01-28T08:07:13;97163.66;;;17.82;47.71
48778;BME280;34578;0.000;0.000;2023-01-28T08:12:13;97167.94;;;17.87;48.02
48778;BME280;34578;0.000;0.000;2023-01-28T08:17:14;97169.59;;;17.87;48.48
48778;BME280;34578;0.000;0.000;2023-01-28T08:22:14;97178.03;;;17.83;48.46
48778;BME280;34578;0.000;0.000;2023-01-28T08:27:14;97190.81;;;17.96;48.46
48778;BME280;34578;0.000;0.000;2023-01-28T08:32:15;97190.75;;;17.90;48.56
48778;BME280;34578;0.000;0.000;2023-01-28T08:37:15;97191.72;;;18.04;48.13
48778;BME280;34578;0.000;0.000;2023-01-28T08:42:18;97197.66;;;18.09;48.71
48778;BME280;34578;0.000;0.000;2023-01-28T08:47:19;97194.25;;;18.06;49.17
48778;BME280;34578;0.000;0.000;2023-01-28T08:52:19;97191.66;;;17.97;49.12
48778;BME280;34578;0.000;0.000;2023-01-28T08:57:19;97191.63;;;17.94;49.41
48778;BME280;34578;0.000;0.000;2023-01-28T09:02:20;97189.88;;;17.87;49.52
48778;BME280;34578;0.000;0.000;2023-01-28T09:07:20;97201.75;;;17.94;49.97
48778;BME280;34578;0.000;0.000;2023-01-28T09:12:20;97198.38;;;17.95;49.66
48778;BME280;34578;0.000;0.000;2023-01-28T09:17:21;97216.16;;;17.96;49.68
48778;BME280;34578;0.000;0.000;2023-01-28T09:22:22;97211.09;;;17.98;50.21
48778;BME280;34578;0.000;0.000;2023-01-28T09:27:22;97213.50;;;17.86;47.16
48778;BME280;34578;0.000;0.000;2023-01-28T09:32:23;97221.13;;;17.90;49.38
48778;BME280;34578;0.000;0.000;2023-01-28T09:37:23;97221.94;;;17.85;48.53
48778;BME280;34578;0.000;0.000;2023-01-28T09:47:40;97222.25;;;18.15;50.24
48778;BME280;34578;0.000;0.000;2023-01-28T09:52:43;97221.31;;;18.07;51.08
48778;BME280;34578;0.000;0.000;2023-01-28T09:57:49;97222.97;;;18.03;50.95
48778;BME280;34578;0.000;0.000;2023-01-28T10:08:12;97233.91;;;17.98;51.04
48778;BME280;34578;0.000;0.000;2023-01-28T10:18:25;97234.81;;;18.07;52.02
48778;BME280;34578;0.000;0.000;2023-01-28T10:29:17;97220.56;;;18.18;51.14
48778;BME280;34578;0.000;0.000;2023-01-28T10:34:18;97224.81;;;18.19;50.86
48778;BME280;34578;0.000;0.000;2023-01-28T10:39:21;97209.66;;;18.24;51.28
48778;BME280;34578;0.000;0.000;2023-01-28T10:44:37;97219.84;;;18.28;50.91
48778;BME280;34578;0.000;0.000;2023-01-28T10:49:47;97218.94;;;18.25;51.15
48778;BME280;34578;0.000;0.000;2023-01-28T10:54:58;97209.66;;;18.24;50.84
48778;BME280;34578;0.000;0.000;2023-01-28T11:00:23;97207.13;;;18.27;50.95
48778;BME280;34578;0.000;0.000;2023-01-28T11:05:30;97178.47;;;18.31;50.82
48778;BME280;34578;0.000;0.000;2023-01-28T11:10:33;97191.16;;;18.29;50.94
48778;BME280;34578;0.000;0.000;2023-01-28T11:15:34;97195.25;;;18.23;50.90
48778;BME280;34578;0.000;0.000;2023-01-28T11:20:37;97191.09;;;18.28;51.31
48778;BME280;34578;0.000;0.000;2023-01-28T11:25:40;97187.78;;;18.30;50.92
48778;BME280;34578;0.000;0.000;2023-01-28T11:30:40;97194.53;;;18.34;51.27
48778;BME280;34578;0.000;0.000;2023-01-28T11:35:41;97197.06;;;18.34;52.04
48778;BME280;34578;0.000;0.000;2023-01-28T11:40:49;97188.69;;;18.38;51.75
48778;BME280;34578;0.000;0.000;2023-01-28T11:51:11;97187.91;;;18.51;51.29
48778;BME280;34578;0.000;0.000;2023-01-28T11:56:34;97183.69;;;18.49;51.71
48778;BME280;34578;0.000;0.000;2023-01-28T12:12:49;97185.38;;;18.50;51.38
48778;BME280;34578;0.000;0.000;2023-01-28T12:18:09;97180.34;;;18.54;51.78
48778;BME280;34578;0.000;0.000;2023-01-28T12:23:28;97186.22;;;18.47;52.16
48778;BME280;34578;0.000;0.000;2023-01-28T12:34:00;97178.50;;;18.37;50.36
48778;BME280;34578;0.000;0.000;2023-01-28T12:44:29;97191.25;;;18.46;50.30
48778;BME280;34578;0.000;0.000;2023-01-28T13:00:22;97192.97;;;18.48;50.00
48778;BME280;34578;0.000;0.000;2023-01-28T13:05:31;97200.59;;;18.50;50.39
48778;BME280;34578;0.000;0.000;2023-01-28T13:10:40;97206.50;;;18.50;50.69
48778;BME280;34578;0.000;0.000;2023-01-28T13:15:42;97198.94;;;18.55;50.95
48778;BME280;34578;0.000;0.000;2023-01-28T13:20:50;97204.00;;;18.55;50.80
48778;BME280;34578;0.000;0.000;2023-01-28T13:25:54;97191.28;;;18.50;51.14
48778;BME280;34578;0.000;0.000;2023-01-28T13:31:13;97210.75;;;18.53;50.68
48778;BME280;34578;0.000;0.000;2023-01-28T13:41:17;97215.06;;;18.63;50.71
48778;BME280;34578;0.000;0.000;2023-01-28T13:46:28;97208.34;;;18.71;50.97
48778;BME280;34578;0.000;0.000;2023-01-28T13:51:31;97215.09;;;18.69;51.02
48778;BME280;34578;0.000;0.000;2023-01-28T14:02:10;97224.41;;;18.67;51.67
48778;BME280;34578;0.000;0.000;2023-01-28T14:13:03;97238.72;;;18.62;51.99
48778;BME280;34578;0.000;0.000;2023-01-28T14:18:28;97231.03;;;18.50;49.99
48778;BME280;34578;0.000;0.000;2023-01-28T14:23:31;97237.16;;;17.88;42.59
48778;BME280;34578;0.000;0.000;2023-01-28T14:28:40;97243.59;;;18.39;48.28
48778;BME280;34578;0.000;0.000;2023-01-28T14:33:45;97253.88;;;18.54;49.79
48778;BME280;34578;0.000;0.000;2023-01-28T14:38:46;97253.97;;;18.63;50.41
48778;BME280;34578;0.000;0.000;2023-01-28T14:43:47;97263.34;;;18.75;50.45
48778;BME280;34578;0.000;0.000;2023-01-28T14:49:15;97273.53;;;18.82;50.89
48778;BME280;34578;0.000;0.000;2023-01-28T14:54:38;97270.97;;;18.81;51.03
48778;BME280;34578;0.000;0.000;2023-01-28T14:59:47;97278.59;;;18.78;51.01
48778;BME280;34578;0.000;0.000;2023-01-28T15:04:50;97290.44;;;18.79;51.51
48778;BME280;34578;0.000;0.000;2023-01-28T15:10:14;97287.88;;;18.77;51.54
48778;BME280;34578;0.000;0.000;2023-01-28T15:15:33;97285.28;;;18.73;51.35
48778;BME280;34578;0.000;0.000;2023-01-28T15:20:35;97294.66;;;18.80;51.70
48778;BME280;34578;0.000;0.000;2023-01-28T15:25:36;97302.28;;;18.81;51.73
48778;BME280;34578;0.000;0.000;2023-01-28T15:30:44;97309.91;;;18.84;51.59
48778;BME280;34578;0.000;0.000;2023-01-28T15:35:48;97314.13;;;18.82;51.20
48778;BME280;34578;0.000;0.000;2023-01-28T15:40:54;97322.63;;;18.86;51.40
48778;BME280;34578;0.000;0.000;2023-01-28T15:45:57;97324.31;;;18.87;51.31
48778;BME280;34578;0.000;0.000;2023-01-28T15:51:03;97326.00;;;18.85;51.77
48778;BME280;34578;0.000;0.000;2023-01-28T15:56:07;97333.63;;;18.88;51.24
48778;BME280;34578;0.000;0.000;2023-01-28T16:06:20;97348.84;;;18.86;51.09
48778;BME280;34578;0.000;0.000;2023-01-28T16:11:31;97358.19;;;18.92;50.96
48778;BME280;34578;0.000;0.000;2023-01-28T16:16:34;97359.03;;;18.89;50.79
48778;BME280;34578;0.000;0.000;2023-01-28T16:21:37;97360.38;;;18.54;47.22
48778;BME280;34578;0.000;0.000;2023-01-28T16:26:42;97366.44;;;18.67;46.91
48778;BME280;34578;0.000;0.000;2023-01-28T16:31:43;97369.66;;;18.51;45.52
48778;BME280;34578;0.000;0.000;2023-01-28T16:36:43;97374.09;;;18.71;48.03
48778;BME280;34578;0.000;0.000;2023-01-28T16:41:45;97369.91;;;18.78;48.09
48778;BME280;34578;0.000;0.000;2023-01-28T16:46:46;97373.31;;;18.80;48.83
48778;BME280;34578;0.000;0.000;2023-01-28T16:51:46;97374.25;;;18.12;44.66
48778;BME280;34578;0.000;0.000;2023-01-28T16:56:47;97374.78;;;18.57;47.22
48778;BME280;34578;0.000;0.000;2023-01-28T17:01:47;97379.19;;;18.76;47.91
48778;BME280;34578;0.000;0.000;2023-01-28T17:06:48;97378.41;;;18.83;48.09
48778;BME280;34578;0.000;0.000;2023-01-28T17:11:48;97380.13;;;18.87;48.44
48778;BME280;34578;0.000;0.000;2023-01-28T17:16:51;97376.00;;;18.96;48.92
48778;BME280;34578;0.000;0.000;2023-01-28T17:21:51;97382.81;;;18.99;49.82
48778;BME280;34578;0.000;0.000;2023-01-28T17:26:52;97389.56;;;19.00;49.74
48778;BME280;34578;0.000;0.000;2023-01-28T17:31:52;97383.66;;;19.04;49.47
48778;BME280;34578;0.000;0.000;2023-01-28T17:36:53;97376.03;;;19.02;49.63
48778;BME280;34578;0.000;0.000;2023-01-28T17:41:53;97389.53;;;18.95;48.78
48778;BME280;34578;0.000;0.000;2023-01-28T17:46:55;97391.16;;;18.90;49.11
48778;BME280;34578;0.000;0.000;2023-01-28T17:51:55;97391.22;;;18.95;49.19
48778;BME280;34578;0.000;0.000;2023-01-28T17:56:55;97406.41;;;18.93;49.23
48778;BME280;34578;0.000;0.000;2023-01-28T18:01:59;97417.41;;;18.91;49.42
48778;BME280;34578;0.000;0.000;2023-01-28T18:07:00;97426.66;;;18.89;49.86
48778;BME280;34578;0.000;0.000;2023-01-28T18:12:00;97420.75;;;18.88;49.58
48778;BME280;34578;0.000;0.000;2023-01-28T18:17:03;97425.00;;;18.89;49.47
48778;BME280;34578;0.000;0.000;2023-01-28T18:22:03;97420.75;;;18.90;49.42
48778;BME280;34578;0.000;0.000;2023-01-28T18:27:03;97426.69;;;18.93;49.96
48778;BME280;34578;0.000;0.000;2023-01-28T18:32:04;97426.72;;;18.92;50.04
48778;BME280;34578;0.000;0.000;2023-01-28T18:37:05;97436.09;;;19.00;50.27
48778;BME280;34578;0.000;0.000;2023-01-28T18:42:07;97429.25;;;18.92;51.72
48778;BME280;34578;0.000;0.000;2023-01-28T18:47:08;97429.25;;;18.95;51.38
48778;BME280;34578;0.000;0.000;2023-01-28T18:52:08;97432.66;;;18.94;50.66
48778;BME280;34578;0.000;0.000;2023-01-28T18:57:09;97433.38;;;18.85;52.24
48778;BME280;34578;0.000;0.000;2023-01-28T19:02:12;97440.22;;;18.89;52.05
48778;BME280;34578;0.000;0.000;2023-01-28T19:07:12;97440.06;;;18.74;52.82
48778;BME280;34578;0.000;0.000;2023-01-28T19:12:13;97433.44;;;18.88;51.52
48778;BME280;34578;0.000;0.000;2023-01-28T19:17:13;97438.38;;;18.76;53.39
48778;BME280;34578;0.000;0.000;2023-01-28T19:22:14;97427.31;;;18.70;53.32
48778;BME280;34578;0.000;0.000;2023-01-28T19:27:14;97426.47;;;18.71;53.01
48778;BME280;34578;0.000;0.000;2023-01-28T19:32:15;97428.19;;;18.70;52.90
48778;BME280;34578;0.000;0.000;2023-01-28T19:37:15;97424.00;;;18.74;52.68
48778;BME280;34578;0.000;0.000;2023-01-28T19:42:16;97423.94;;;18.71;53.48
48778;BME280;34578;0.000;0.000;2023-01-28T19:47:17;97430.91;;;18.90;52.31
48778;BME280;34578;0.000;0.000;2023-01-28T19:52:17;97419.13;;;18.96;54.04
48778;BME280;34578;0.000;0.000;2023-01-28T19:57:17;97439.56;;;19.10;53.43
48778;BME280;34578;0.000;0.000;2023-01-28T20:02:18;97441.31;;;19.17;53.13
48778;BME280;34578;0.000;0.000;2023-01-28T20:07:18;97449.84;;;19.22;54.50
48778;BME280;34578;0.000;0.000;2023-01-28T20:12:18;97447.34;;;19.23;53.94
48778;BME280;34578;0.000;0.000;2023-01-28T20:17:19;97453.28;;;19.24;54.40
48778;BME280;34578;0.000;0.000;2023-01-28T20:22:20;97454.13;;;19.29;53.77
48778;BME280;34578;0.000;0.000;2023-01-28T20:27:24;97442.31;;;19.32;53.35
48778;BME280;34578;0.000;0.000;2023-01-28T20:32:25;97448.28;;;19.33;53.16
48778;BME280;34578;0.000;0.000;2023-01-28T20:37:25;97462.66;;;19.35;53.25
48778;BME280;34578;0.000;0.000;2023-01-28T20:42:26;97460.13;;;19.37;53.17
48778;BME280;34578;0.000;0.000;2023-01-28T20:47:28;97458.41;;;19.34;52.73
48778;BME280;34578;0.000;0.000;2023-01-28T20:52:29;97461.78;;;19.32;52.21
48778;BME280;34578;0.000;0.000;2023-01-28T20:57:30;97464.34;;;19.33;51.93
48778;BME280;34578;0.000;0.000;2023-01-28T21:02:30;97469.47;;;19.36;51.68
48778;BME280;34578;0.000;0.000;2023-01-28T21:07:31;97475.34;;;19.34;51.24
48778;BME280;34578;0.000;0.000;2023-01-28T21:12:32;97466.09;;;19.37;51.91
48778;BME280;34578;0.000;0.000;2023-01-28T21:17:32;97479.66;;;19.42;51.78
48778;BME280;34578;0.000;0.000;2023-01-28T21:22:33;97473.72;;;19.42;51.90
48778;BME280;34578;0.000;0.000;2023-01-28T21:27:33;97473.72;;;19.40;52.00
48778;BME280;34578;0.000;0.000;2023-01-28T21:32:36;97472.00;;;19.38;51.32
48778;BME280;34578;0.000;0.000;2023-01-28T21:37:36;97477.06;;;19.38;51.09
48778;BME280;34578;0.000;0.000;2023-01-28T21:42:40;97482.16;;;19.38;51.28
48778;BME280;34578;0.000;0.000;2023-01-28T21:47:40;97489.78;;;19.36;50.49
48778;BME280;34578;0.000;0.000;2023-01-28T21:52:41;97488.91;;;19.36;50.58
48778;BME280;34578;0.000;0.000;2023-01-28T21:57:41;97477.06;;;19.35;50.55
48778;BME280;34578;0.000;0.000;2023-01-28T22:02:41;97471.19;;;19.40;51.62
48778;BME280;34578;0.000;0.000;2023-01-28T22:07:42;97473.72;;;19.40;51.14
48778;BME280;34578;0.000;0.000;2023-01-28T22:12:42;97472.84;;;19.40;50.43
48778;BME280;34578;0.000;0.000;2023-01-28T22:17:42;97488.97;;;19.43;50.56
48778;BME280;34578;0.000;0.000;2023-01-28T22:22:43;97497.44;;;19.41;50.35
48778;BME280;34578;0.000;0.000;2023-01-28T22:27:43;97480.50;;;19.43;51.03
48778;BME280;34578;0.000;0.000;2023-01-28T22:32:43;97474.56;;;19.42;51.18
48778;BME280;34578;0.000;0.000;2023-01-28T22:37:44;97477.97;;;19.43;51.18
48778;BME280;34578;0.000;0.000;2023-01-28T22:42:44;97480.50;;;19.43;51.09
48778;BME280;34578;0.000;0.000;2023-01-28T22:47:45;97480.53;;;19.46;51.10
48778;BME280;34578;0.000;0.000;2023-01-28T22:52:46;97482.22;;;19.47;51.37
48778;BME280;34578;0.000;0.000;2023-01-28T22:57:46;97483.91;;;19.48;51.53
48778;BME280;34578;0.000;0.000;2023-01-28T23:02:46;97484.78;;;19.48;51.39
48778;BME280;34578;0.000;0.000;2023-01-28T23:07:47;97487.38;;;19.53;51.43
48778;BME280;34578;0.000;0.000;2023-01-28T23:12:47;97477.19;;;19.51;50.99
48778;BME280;34578;0.000;0.000;2023-01-28T23:17:52;97488.19;;;19.52;50.90
48778;BME280;34578;0.000;0.000;2023-01-28T23:23:15;97482.28;;;19.50;50.92
48778;BME280;34578;0.000;0.000;2023-01-28T23:28:35;97473.81;;;19.51;51.22
48778;BME280;34578;0.000;0.000;2023-01-28T23:33:37;97474.63;;;19.51;51.08
48778;BME280;34578;0.000;0.000;2023-01-28T23:38:38;97474.47;;;19.29;49.67
48778;BME280;34578;0.000;0.000;2023-01-28T23:43:38;97479.31;;;19.09;51.36
48778;BME280;34578;0.000;0.000;2023-01-28T23:48:38;97480.19;;;19.10;52.48
48778;BME280;34578;0.000;0.000;2023-01-28T23:53:39;97485.19;;;19.07;52.46
48778;BME280;34578;0.000;0.000;2023-01-28T23:58:39;97482.72;;;19.13;50.12
